createdAt,value
2019-01-09T00:01:14.514Z,3.30
2019-01-09T00:03:42.564Z,3.20
2019-01-09T00:06:10.662Z,3.20
2019-01-09T00:08:38.993Z,3.30
2019-01-09T00:11:07.029Z,3.30
2019-01-09T00:13:35.088Z,3.30
2019-01-09T00:16:03.148Z,3.20
2019-01-09T00:18:31.202Z,3.20
2019-01-09T00:20:59.315Z,3.20
2019-01-09T00:23:27.696Z,3.40
2019-01-09T00:25:55.734Z,3.20
2019-01-09T00:28:24.073Z,3.30
2019-01-09T00:30:52.126Z,3.20
2019-01-09T00:33:20.191Z,3.10
2019-01-09T00:35:48.740Z,3.10
2019-01-09T00:38:16.773Z,3.10
2019-01-09T00:40:44.827Z,3.20
2019-01-09T00:43:13.234Z,3.20
2019-01-09T00:45:41.345Z,3.20
2019-01-09T00:48:09.403Z,3.20
2019-01-09T00:50:37.537Z,3.20
2019-01-09T00:53:05.593Z,3.10
2019-01-09T00:55:33.636Z,3.10
2019-01-09T00:58:02.150Z,3.10
2019-01-09T01:00:30.239Z,3.00
2019-01-09T01:03:15.321Z,3.00
2019-01-09T01:06:08.374Z,3.10
2019-01-09T01:08:54.206Z,3.10
2019-01-09T01:11:32.694Z,3.00
2019-01-09T01:14:15.224Z,3.00
2019-01-09T01:16:54.078Z,3.00
2019-01-09T01:19:44.030Z,3.00
2019-01-09T01:22:43.497Z,3.00
2019-01-09T01:25:23.099Z,3.10
2019-01-09T01:28:07.265Z,3.10
2019-01-09T01:30:57.574Z,3.00
2019-01-09T01:33:39.137Z,3.10
2019-01-09T01:36:17.443Z,3.00
2019-01-09T01:39:06.550Z,3.10
2019-01-09T01:41:47.181Z,3.00
2019-01-09T01:44:19.533Z,3.20
2019-01-09T01:47:09.613Z,3.00
2019-01-09T01:49:51.536Z,3.00
2019-01-09T01:52:39.070Z,3.00
2019-01-09T01:55:11.415Z,3.00
2019-01-09T01:57:59.990Z,3.00
2019-01-09T02:00:34.802Z,3.10
2019-01-09T02:03:30.637Z,3.20
2019-01-09T02:06:06.814Z,3.20
2019-01-09T02:08:52.905Z,3.10
2019-01-09T02:11:27.931Z,3.10
2019-01-09T02:14:18.294Z,3.00
2019-01-09T02:17:04.441Z,3.00
2019-01-09T02:19:35.243Z,2.90
2019-01-09T02:22:34.620Z,3.10
2019-01-09T02:25:14.278Z,3.20
2019-01-09T02:28:07.637Z,3.10
2019-01-09T02:30:53.773Z,2.90
2019-01-09T02:33:21.829Z,2.90
2019-01-09T02:35:49.914Z,3.00
2019-01-09T02:38:17.966Z,3.20
2019-01-09T02:56:37.871Z,3.10
2019-01-09T02:59:05.953Z,3.00
2019-01-09T03:01:34.179Z,3.20
2019-01-09T03:04:02.475Z,3.00
2019-01-09T03:06:30.658Z,2.90
2019-01-09T03:08:58.961Z,3.00
2019-01-09T03:11:27.229Z,2.90
2019-01-09T03:13:55.414Z,2.90
2019-01-09T03:16:23.602Z,2.90
2019-01-09T03:18:51.869Z,2.90
2019-01-09T03:21:20.070Z,2.90
2019-01-09T03:23:48.250Z,2.90
2019-01-09T03:26:16.455Z,2.90
2019-01-09T03:28:44.672Z,2.90
2019-01-09T03:31:12.895Z,2.90
2019-01-09T03:33:41.232Z,2.90
2019-01-09T03:36:09.418Z,3.00
2019-01-09T03:38:37.629Z,3.00
2019-01-09T03:41:05.838Z,2.90
2019-01-09T03:43:34.034Z,2.90
2019-01-09T03:46:02.245Z,3.00
2019-01-09T03:48:30.427Z,2.90
2019-01-09T03:50:58.607Z,2.90
2019-01-09T03:53:26.810Z,2.80
2019-01-09T03:55:55.022Z,2.90
2019-01-09T03:58:23.286Z,2.90
2019-01-09T04:00:51.494Z,3.00
2019-01-09T04:03:19.710Z,3.10
2019-01-09T04:05:49.098Z,3.00
2019-01-09T04:08:17.356Z,2.90
2019-01-09T04:10:45.610Z,2.80
2019-01-09T04:13:13.810Z,2.80
2019-01-09T04:15:41.999Z,2.80
2019-01-09T04:18:10.574Z,2.80
2019-01-09T04:20:38.755Z,2.80
2019-01-09T04:23:06.938Z,2.70
2019-01-09T04:25:35.134Z,2.90
2019-01-09T04:28:03.366Z,2.80
2019-01-09T04:30:31.738Z,2.80
2019-01-09T04:32:59.936Z,2.80
2019-01-09T04:35:28.126Z,2.80
2019-01-09T04:37:56.282Z,2.70
2019-01-09T04:40:24.486Z,2.80
2019-01-09T04:42:52.667Z,2.80
2019-01-09T04:45:20.886Z,2.70
2019-01-09T04:47:49.122Z,2.80
2019-01-09T04:50:17.350Z,2.80
2019-01-09T04:52:45.561Z,2.80
2019-01-09T04:55:13.743Z,2.80
2019-01-09T04:57:41.943Z,2.70
2019-01-09T05:00:10.190Z,2.70
2019-01-09T05:02:38.369Z,2.80
2019-01-09T05:05:06.549Z,2.80
2019-01-09T05:07:34.767Z,2.70
2019-01-09T05:10:02.986Z,2.80
2019-01-09T05:12:31.157Z,2.80
2019-01-09T05:14:59.331Z,2.70
2019-01-09T05:17:27.758Z,2.80
2019-01-09T05:19:55.943Z,2.70
2019-01-09T05:22:24.128Z,2.80
2019-01-09T05:24:52.325Z,2.70
2019-01-09T05:27:20.517Z,2.70
2019-01-09T05:29:48.746Z,2.90
2019-01-09T05:32:16.955Z,2.90
2019-01-09T05:34:45.151Z,2.80
2019-01-09T05:37:16.482Z,2.80
2019-01-09T05:39:44.673Z,2.70
2019-01-09T05:42:12.893Z,2.70
2019-01-09T05:44:41.114Z,2.70
2019-01-09T05:47:09.300Z,2.70
2019-01-09T05:49:37.521Z,2.70
2019-01-09T05:52:05.974Z,2.70
2019-01-09T05:54:34.214Z,2.70
2019-01-09T05:57:02.395Z,2.70
2019-01-09T05:59:30.947Z,2.70
2019-01-09T06:01:59.192Z,2.60
2019-01-09T06:04:27.370Z,2.60
2019-01-09T06:06:55.584Z,2.60
2019-01-09T06:09:23.762Z,2.60
2019-01-09T06:11:51.994Z,2.60
2019-01-09T06:14:20.222Z,2.60
2019-01-09T06:16:48.406Z,2.70
2019-01-09T06:19:16.634Z,2.60
2019-01-09T06:21:44.992Z,2.70
2019-01-09T06:24:13.238Z,2.60
2019-01-09T06:26:41.443Z,2.60
2019-01-09T06:29:09.647Z,2.70
2019-01-09T06:31:37.838Z,2.40
2019-01-09T06:34:05.990Z,2.40
2019-01-09T06:36:34.183Z,2.30
2019-01-09T06:39:02.383Z,2.40
2019-01-09T06:41:30.573Z,2.60
2019-01-09T06:43:58.810Z,2.50
2019-01-09T06:46:27.032Z,2.40
2019-01-09T06:48:55.227Z,2.40
2019-01-09T06:51:23.454Z,2.40
2019-01-09T06:53:51.691Z,2.40
2019-01-09T06:56:19.942Z,2.30
2019-01-09T06:58:48.127Z,2.30
2019-01-09T07:01:16.680Z,2.30
2019-01-09T07:03:45.040Z,2.30
2019-01-09T07:06:13.336Z,2.30
2019-01-09T07:08:42.905Z,2.40
2019-01-09T07:11:11.231Z,2.50
2019-01-09T07:13:39.478Z,2.40
2019-01-09T07:16:07.733Z,2.30
2019-01-09T07:18:35.945Z,2.30
2019-01-09T07:21:04.190Z,2.20
2019-01-09T07:23:32.792Z,2.20
2019-01-09T07:26:00.971Z,2.20
2019-01-09T07:28:29.487Z,2.30
2019-01-09T07:30:57.754Z,2.30
2019-01-09T07:33:25.970Z,2.30
2019-01-09T07:35:54.378Z,2.20
2019-01-09T07:38:22.563Z,2.20
2019-01-09T07:40:50.758Z,2.10
2019-01-09T07:43:19.003Z,2.10
2019-01-09T07:45:47.222Z,2.20
2019-01-09T07:48:15.398Z,2.20
2019-01-09T07:50:43.619Z,2.20
2019-01-09T07:53:11.849Z,2.20
2019-01-09T07:55:40.057Z,2.30
2019-01-09T07:58:08.286Z,2.30
2019-01-09T08:00:36.502Z,2.30
2019-01-09T08:03:04.738Z,2.30
2019-01-09T08:05:33.018Z,2.10
2019-01-09T08:08:01.204Z,2.20
2019-01-09T08:10:29.387Z,2.30
2019-01-09T08:12:57.969Z,2.20
2019-01-09T08:15:26.137Z,2.20
2019-01-09T08:17:54.330Z,2.20
2019-01-09T08:20:22.639Z,2.20
2019-01-09T08:22:50.822Z,2.20
2019-01-09T08:25:19.076Z,2.20
2019-01-09T08:27:47.254Z,2.10
2019-01-09T08:30:15.517Z,2.10
2019-01-09T08:32:43.722Z,2.10
2019-01-09T08:35:12.023Z,2.30
2019-01-09T08:37:40.202Z,2.40
2019-01-09T08:40:09.378Z,2.50
2019-01-09T08:42:37.734Z,2.30
2019-01-09T08:45:06.805Z,2.30
2019-01-09T08:47:35.056Z,2.20
2019-01-09T08:50:04.309Z,2.20
2019-01-09T08:52:32.895Z,2.00
2019-01-09T08:55:01.213Z,2.10
2019-01-09T08:57:29.499Z,2.20
2019-01-09T08:59:57.698Z,2.20
2019-01-09T09:02:25.887Z,2.30
2019-01-09T09:04:54.114Z,2.20
2019-01-09T09:07:23.775Z,2.30
2019-01-09T09:09:52.001Z,2.20
2019-01-09T09:12:20.349Z,2.10
2019-01-09T09:14:48.527Z,2.10
2019-01-09T09:17:16.745Z,2.30
2019-01-09T09:19:44.962Z,2.20
2019-01-09T09:22:13.166Z,2.30
2019-01-09T09:24:41.349Z,2.30
2019-01-09T09:27:09.560Z,2.40
2019-01-09T09:29:37.855Z,2.50
2019-01-09T09:32:06.150Z,2.60
2019-01-09T09:34:34.714Z,2.70
2019-01-09T09:37:03.037Z,2.70
2019-01-09T09:39:31.284Z,2.70
2019-01-09T09:41:59.428Z,2.70
2019-01-09T09:44:27.638Z,2.60
2019-01-09T09:46:56.166Z,2.80
2019-01-09T09:49:24.349Z,3.00
2019-01-09T09:51:52.633Z,2.80
2019-01-09T09:54:20.947Z,2.90
2019-01-09T09:56:49.215Z,2.90
2019-01-09T09:59:17.421Z,2.80
2019-01-09T10:01:45.703Z,2.80
2019-01-09T10:04:13.873Z,2.70
2019-01-09T10:06:42.379Z,2.60
2019-01-09T10:09:10.935Z,2.80
2019-01-09T10:11:39.203Z,2.80
2019-01-09T10:14:07.404Z,2.90
2019-01-09T10:16:35.619Z,3.00
2019-01-09T10:19:03.955Z,3.00
2019-01-09T10:21:32.162Z,3.00
2019-01-09T10:24:00.301Z,2.90
2019-01-09T10:26:28.503Z,2.80
2019-01-09T10:28:56.711Z,2.80
2019-01-09T10:31:25.390Z,2.90
2019-01-09T10:33:54.003Z,2.80
2019-01-09T10:36:22.312Z,2.90
2019-01-09T10:38:50.535Z,3.00
2019-01-09T10:41:18.859Z,3.00
2019-01-09T10:43:47.138Z,3.00
2019-01-09T10:46:15.350Z,3.00
2019-01-09T10:48:43.531Z,3.00
2019-01-09T10:51:11.738Z,2.90
2019-01-09T10:53:40.238Z,2.90
2019-01-09T10:56:08.831Z,3.00
2019-01-09T10:58:37.014Z,3.00
2019-01-09T11:01:05.239Z,3.00
2019-01-09T11:03:33.583Z,3.20
2019-01-09T11:06:01.944Z,3.20
2019-01-09T11:08:30.217Z,3.10
2019-01-09T11:10:58.484Z,3.20
2019-01-09T11:13:26.814Z,3.10
2019-01-09T11:15:55.249Z,3.10
2019-01-09T11:18:23.559Z,3.10
2019-01-09T11:20:52.076Z,3.10
2019-01-09T11:23:20.307Z,3.10
2019-01-09T11:25:48.522Z,3.00
2019-01-09T11:28:18.755Z,3.10
2019-01-09T11:30:46.935Z,3.10
2019-01-09T11:33:15.186Z,3.00
2019-01-09T11:35:43.425Z,3.20
2019-01-09T11:38:11.550Z,3.00
2019-01-09T11:40:39.785Z,3.00
2019-01-09T11:43:07.961Z,3.10
2019-01-09T11:45:36.478Z,3.10
2019-01-09T11:48:04.658Z,3.20
2019-01-09T11:50:32.850Z,3.20
2019-01-09T11:53:01.318Z,3.20
2019-01-09T11:55:29.532Z,3.00
2019-01-09T11:57:57.718Z,3.00
2019-01-09T12:00:26.969Z,3.10
2019-01-09T12:02:55.276Z,3.10
2019-01-09T12:05:23.463Z,3.20
2019-01-09T12:07:51.643Z,3.20
2019-01-09T12:10:29.496Z,3.20
2019-01-09T12:12:50.591Z,3.20
2019-01-09T12:15:19.016Z,3.10
2019-01-09T12:17:47.339Z,3.20
2019-01-09T12:20:16.132Z,3.20
2019-01-09T12:22:44.355Z,3.10
2019-01-09T12:25:13.103Z,3.10
2019-01-09T12:27:41.452Z,3.20
2019-01-09T12:30:17.334Z,3.20
2019-01-09T12:32:45.639Z,3.20
2019-01-09T12:35:13.886Z,3.20
2019-01-09T12:37:42.099Z,3.00
2019-01-09T12:40:10.480Z,3.10
2019-01-09T12:42:38.683Z,3.20
2019-01-09T12:45:07.823Z,3.10
2019-01-09T12:47:36.018Z,3.20
2019-01-09T12:50:05.155Z,3.20
2019-01-09T12:52:33.363Z,3.30
2019-01-09T12:55:01.650Z,3.20
2019-01-09T12:57:29.866Z,3.20
2019-01-09T12:59:58.058Z,3.30
2019-01-09T13:02:26.323Z,3.30
2019-01-09T13:04:54.709Z,3.30
2019-01-09T13:07:22.899Z,3.20
2019-01-09T13:09:51.130Z,3.20
2019-01-09T13:12:19.395Z,3.10
2019-01-09T13:14:49.310Z,3.20
2019-01-09T13:17:17.515Z,3.20
2019-01-09T13:19:45.806Z,3.10
2019-01-09T13:22:14.384Z,3.30
2019-01-09T13:24:42.557Z,3.30
2019-01-09T13:27:10.757Z,3.30
2019-01-09T13:29:39.006Z,3.30
2019-01-09T13:32:07.263Z,3.30
2019-01-09T13:34:35.525Z,3.30
2019-01-09T13:37:03.706Z,3.30
2019-01-09T13:39:31.891Z,3.30
2019-01-09T13:42:00.375Z,3.20
2019-01-09T13:44:28.558Z,3.40
2019-01-09T13:46:56.683Z,3.50
2019-01-09T13:49:24.911Z,3.30
2019-01-09T13:51:53.106Z,3.40
2019-01-09T13:54:21.420Z,3.30
2019-01-09T13:56:49.747Z,3.30
2019-01-09T13:59:17.922Z,3.30
2019-01-09T14:01:46.182Z,3.20
2019-01-09T14:04:14.398Z,3.20
2019-01-09T14:06:42.699Z,3.30
2019-01-09T14:09:10.995Z,3.30
2019-01-09T14:11:39.239Z,3.30
2019-01-09T14:14:07.467Z,3.30
2019-01-09T14:16:35.657Z,3.20
2019-01-09T14:19:03.864Z,3.30
2019-01-09T14:21:32.167Z,3.30
2019-01-09T14:24:00.430Z,3.20
2019-01-09T14:26:28.714Z,3.20
2019-01-09T14:28:56.922Z,3.30
2019-01-09T14:31:25.160Z,3.30
2019-01-09T14:33:53.502Z,3.30
2019-01-09T14:36:21.758Z,3.30
2019-01-09T14:38:50.011Z,3.20
2019-01-09T14:41:18.251Z,3.30
2019-01-09T14:43:47.266Z,3.40
2019-01-09T14:46:16.773Z,3.40
2019-01-09T14:48:44.955Z,3.20
2019-01-09T14:51:13.142Z,3.00
2019-01-09T14:53:41.404Z,3.10
2019-01-09T14:56:09.603Z,3.00
2019-01-09T14:58:37.838Z,3.10
2019-01-09T15:01:06.220Z,3.20
2019-01-09T15:03:34.448Z,3.10
2019-01-09T15:06:02.838Z,3.10
2019-01-09T15:08:31.015Z,2.90
2019-01-09T15:10:59.204Z,3.00
2019-01-09T15:13:27.387Z,3.10
2019-01-09T15:15:56.708Z,3.00
2019-01-09T15:18:25.047Z,3.00
2019-01-09T15:20:53.246Z,3.00
2019-01-09T15:23:21.556Z,3.10
2019-01-09T15:25:49.678Z,3.00
2019-01-09T15:28:17.931Z,3.00
2019-01-09T15:30:46.105Z,3.10
2019-01-09T15:33:14.355Z,2.90
2019-01-09T15:35:42.530Z,3.10
2019-01-09T15:38:11.090Z,3.10
2019-01-09T15:40:39.274Z,3.10
2019-01-09T15:43:07.450Z,2.90
2019-01-09T15:45:35.673Z,2.90
2019-01-09T15:48:03.867Z,3.00
2019-01-09T15:50:32.071Z,2.90
2019-01-09T15:53:00.692Z,2.80
2019-01-09T15:55:29.413Z,2.80
2019-01-09T15:57:58.057Z,2.80
2019-01-09T16:00:28.001Z,2.80
2019-01-09T16:02:56.644Z,3.00
2019-01-09T16:05:25.339Z,2.90
2019-01-09T16:07:54.122Z,2.80
2019-01-09T16:10:22.703Z,2.90
2019-01-09T16:12:51.386Z,2.90
2019-01-09T16:15:20.175Z,3.00
2019-01-09T16:17:48.856Z,3.00
2019-01-09T16:20:18.095Z,3.00
2019-01-09T16:22:46.852Z,3.10
2019-01-09T16:25:15.584Z,3.00
2019-01-09T16:27:44.264Z,2.90
2019-01-09T16:30:17.645Z,3.00
2019-01-09T16:32:45.838Z,2.90
2019-01-09T16:35:14.050Z,3.00
2019-01-09T16:37:42.302Z,2.90
2019-01-09T16:40:11.217Z,2.80
2019-01-09T16:42:39.770Z,2.80
2019-01-09T16:45:08.864Z,2.70
2019-01-09T16:47:37.047Z,2.80
2019-01-09T16:50:06.138Z,2.90
2019-01-09T16:52:34.339Z,2.90
2019-01-09T16:55:02.553Z,2.90
2019-01-09T16:57:30.827Z,2.90
2019-01-09T16:59:59.406Z,3.00
2019-01-09T17:02:27.740Z,2.90
2019-01-09T17:04:55.997Z,2.80
2019-01-09T17:07:24.166Z,2.80
2019-01-09T17:09:52.641Z,2.90
2019-01-09T17:12:21.309Z,2.80
2019-01-09T17:14:49.582Z,2.70
2019-01-09T17:17:17.798Z,2.70
2019-01-09T17:19:46.106Z,2.80
2019-01-09T17:22:14.302Z,2.80
2019-01-09T17:24:42.616Z,2.80
2019-01-09T17:27:10.818Z,2.80
2019-01-09T17:29:39.069Z,2.80
2019-01-09T17:32:07.436Z,3.00
2019-01-09T17:34:35.678Z,3.00
2019-01-09T17:37:03.966Z,3.00
2019-01-09T17:39:32.206Z,2.90
2019-01-09T17:42:00.410Z,2.90
2019-01-09T17:44:28.597Z,3.00
2019-01-09T17:46:56.778Z,2.90
2019-01-09T17:49:25.015Z,2.90
2019-01-09T17:51:53.266Z,2.90
2019-01-09T17:54:21.527Z,3.10
2019-01-09T17:56:49.766Z,3.10
2019-01-09T17:59:17.951Z,2.90
2019-01-09T18:01:46.144Z,3.00
2019-01-09T18:04:14.342Z,2.90
2019-01-09T18:06:42.578Z,2.80
2019-01-09T18:09:10.826Z,2.90
2019-01-09T18:11:39.100Z,2.70
2019-01-09T18:14:07.613Z,2.80
2019-01-09T18:16:35.804Z,2.90
2019-01-09T18:19:04.079Z,2.90
2019-01-09T18:21:32.314Z,2.90
2019-01-09T18:24:00.498Z,2.70
2019-01-09T18:26:28.623Z,2.80
2019-01-09T18:28:56.853Z,2.90
2019-01-09T18:31:42.893Z,3.00
2019-01-09T18:34:30.210Z,3.10
2019-01-09T18:37:05.575Z,3.10
2019-01-09T18:39:51.550Z,3.00
2019-01-09T18:42:48.566Z,3.00
2019-01-09T18:45:41.998Z,3.00
2019-01-09T18:48:35.462Z,2.80
2019-01-09T18:51:40.962Z,2.80
2019-01-09T18:54:09.141Z,2.80
2019-01-09T18:56:37.325Z,2.80
2019-01-09T18:59:05.638Z,2.80
2019-01-09T19:01:33.890Z,2.90
2019-01-09T19:04:02.149Z,3.00
2019-01-09T19:06:35.422Z,3.10
2019-01-09T19:09:00.347Z,3.00
2019-01-09T19:11:28.559Z,3.00
2019-01-09T19:13:56.817Z,3.00
2019-01-09T19:16:25.014Z,3.10
2019-01-09T19:18:54.325Z,3.10
2019-01-09T19:21:22.589Z,3.10
2019-01-09T19:23:50.820Z,3.20
2019-01-09T19:26:19.030Z,3.10
2019-01-09T19:28:47.219Z,3.10
2019-01-09T19:31:15.406Z,3.10
2019-01-09T19:33:43.673Z,3.20
2019-01-09T19:36:11.874Z,3.20
2019-01-09T19:38:40.350Z,3.30
2019-01-09T19:41:16.739Z,3.40
2019-01-09T19:43:38.735Z,3.40
2019-01-09T19:46:07.227Z,3.30
2019-01-09T19:48:35.418Z,3.40
2019-01-09T19:51:04.151Z,3.40
2019-01-09T19:53:32.378Z,3.40
2019-01-09T19:56:01.190Z,3.30
2019-01-09T19:58:29.596Z,3.40
2019-01-09T20:00:57.782Z,3.50
2019-01-09T20:03:27.386Z,3.50
2019-01-09T20:05:55.738Z,3.60
2019-01-09T20:08:24.022Z,3.60
2019-01-09T20:10:52.347Z,3.70
2019-01-09T20:13:20.697Z,3.60
2019-01-09T20:15:49.158Z,3.60
2019-01-09T20:18:17.399Z,3.60
2019-01-09T20:20:45.677Z,3.60
2019-01-09T20:23:13.995Z,3.60
2019-01-09T20:25:42.372Z,3.50
2019-01-09T20:28:10.824Z,3.60
2019-01-09T20:30:39.092Z,3.60
2019-01-09T20:33:07.422Z,3.70
2019-01-09T20:35:35.693Z,3.80
2019-01-09T20:38:04.223Z,3.80
2019-01-09T20:40:32.438Z,3.90
2019-01-09T20:43:00.879Z,3.90
2019-01-09T20:45:29.089Z,3.90
2019-01-09T20:47:57.287Z,3.90
2019-01-09T20:50:26.766Z,4.00
2019-01-09T20:52:54.961Z,4.00
2019-01-09T20:55:23.162Z,4.00
2019-01-09T20:57:51.396Z,4.00
2019-01-09T21:00:20.790Z,4.00
2019-01-09T21:02:49.482Z,4.00
2019-01-09T21:05:19.683Z,4.10
2019-01-09T21:07:48.831Z,4.10
2019-01-09T21:10:17.202Z,4.00
2019-01-09T21:12:45.427Z,3.90
2019-01-09T21:15:14.692Z,3.90
2019-01-09T21:17:42.878Z,4.00
2019-01-09T21:20:12.659Z,3.90
2019-01-09T21:22:41.083Z,3.80
2019-01-09T21:25:09.390Z,3.80
2019-01-09T21:27:42.196Z,3.80
2019-01-09T21:30:10.608Z,3.90
2019-01-09T21:32:38.786Z,4.00
2019-01-09T21:35:10.776Z,3.90
2019-01-09T21:37:38.990Z,3.90
2019-01-09T21:40:09.490Z,3.90
2019-01-09T21:42:37.678Z,3.90
2019-01-09T21:45:06.650Z,3.90
2019-01-09T21:47:34.858Z,3.90
2019-01-09T21:50:03.118Z,3.90
2019-01-09T21:52:31.346Z,3.90
2019-01-09T21:54:59.533Z,3.90
2019-01-09T21:57:27.697Z,3.80
2019-01-09T21:59:55.912Z,3.70
2019-01-09T22:02:24.138Z,3.70
2019-01-09T22:04:54.391Z,3.60
2019-01-09T22:07:22.602Z,3.70
2019-01-09T22:09:50.781Z,3.70
2019-01-09T22:12:19.027Z,3.70
2019-01-09T22:14:47.238Z,3.60
2019-01-09T22:17:15.533Z,3.60
2019-01-09T22:19:43.780Z,3.70
2019-01-09T22:22:12.027Z,3.70
2019-01-09T22:24:40.326Z,3.80
2019-01-09T22:27:08.526Z,3.90
2019-01-09T22:29:37.055Z,3.90
2019-01-09T22:32:05.231Z,3.80
2019-01-09T22:34:33.431Z,3.80
2019-01-09T22:37:01.630Z,3.70
2019-01-09T22:39:29.802Z,3.80
2019-01-09T22:41:58.326Z,3.70
2019-01-09T22:44:26.506Z,3.70
2019-01-09T22:46:54.691Z,3.70
2019-01-09T22:49:22.897Z,3.80
2019-01-09T22:51:51.081Z,3.80
2019-01-09T22:54:19.251Z,3.90
2019-01-09T22:56:47.461Z,3.90
2019-01-09T22:59:15.634Z,3.70
2019-01-09T23:01:43.948Z,3.60
2019-01-09T23:04:12.145Z,3.70
2019-01-09T23:06:40.317Z,3.60
2019-01-09T23:09:09.367Z,3.50
2019-01-09T23:11:37.597Z,3.50
2019-01-09T23:14:05.907Z,3.50
2019-01-09T23:16:34.131Z,3.40
2019-01-09T23:19:02.406Z,3.40
2019-01-09T23:21:30.662Z,3.60
2019-01-09T23:23:58.958Z,3.70
2019-01-09T23:26:27.188Z,3.60
2019-01-09T23:28:55.770Z,3.70
2019-01-09T23:31:23.949Z,3.70
2019-01-09T23:33:52.193Z,3.60
2019-01-09T23:36:20.398Z,3.50
2019-01-09T23:38:48.772Z,3.40
2019-01-09T23:41:16.989Z,3.40
2019-01-09T23:43:45.185Z,3.50
2019-01-09T23:46:13.413Z,3.30
2019-01-09T23:48:41.656Z,3.30
2019-01-09T23:51:09.886Z,3.20
2019-01-09T23:53:38.163Z,3.20
2019-01-09T23:56:06.338Z,3.10
2019-01-09T23:58:34.530Z,3.20
